createdAt,value
2023-01-07T00:57:54.357Z,400.00
2023-01-07T00:58:54.272Z,403.00
2023-01-07T00:59:54.236Z,402.00
2023-01-07T01:00:54.289Z,404.00
2023-01-07T01:01:54.199Z,403.00
2023-01-07T01:02:54.306Z,404.00
2023-01-07T01:03:54.088Z,406.00
2023-01-07T01:04:54.039Z,410.00
2023-01-07T01:05:54.004Z,412.00
2023-01-07T01:06:53.978Z,412.00
2023-01-07T01:07:54.041Z,411.00
2023-01-07T01:08:53.923Z,409.00
2023-01-07T01:09:53.909Z,408.00
2023-01-07T01:11:53.890Z,406.00
2023-01-07T01:12:53.817Z,406.00
2023-01-07T01:13:53.795Z,405.00
2023-01-07T01:14:53.727Z,405.00
2023-01-07T01:15:53.739Z,406.00
2023-01-07T01:16:53.675Z,405.00
2023-01-07T01:17:53.639Z,406.00
2023-01-07T01:18:53.687Z,405.00
2023-01-07T01:19:53.582Z,405.00
2023-01-07T01:20:53.528Z,405.00
2023-01-07T01:21:53.495Z,405.00
2023-01-07T01:22:53.459Z,406.00
2023-01-07T01:23:53.440Z,407.00
2023-01-07T01:24:53.366Z,406.00
2023-01-07T01:25:53.354Z,406.00
2023-01-07T01:26:53.308Z,407.00
2023-01-07T01:27:53.291Z,408.00
2023-01-07T01:28:53.254Z,410.00
2023-01-07T01:29:53.224Z,410.00
2023-01-07T01:30:53.178Z,409.00
2023-01-07T01:31:53.194Z,407.00
2023-01-07T01:32:53.144Z,406.00
2023-01-07T01:33:53.088Z,404.00
2023-01-07T01:34:53.128Z,402.00
2023-01-07T01:35:53.027Z,403.00
2023-01-07T01:36:52.978Z,403.00
2023-01-07T05:36:43.772Z,399.00
2023-01-07T05:37:43.739Z,400.00
2023-01-07T05:38:43.737Z,402.00
2023-01-07T05:39:43.693Z,403.00
2023-01-07T05:40:43.653Z,403.00
2023-01-07T05:41:43.624Z,401.00
2023-01-07T05:42:43.620Z,401.00
2023-01-07T05:43:43.585Z,401.00
2023-01-07T05:44:43.559Z,402.00
2023-01-07T05:45:43.506Z,403.00
2023-01-07T05:46:43.471Z,404.00
2023-01-07T05:47:43.425Z,406.00
2023-01-07T05:48:43.426Z,407.00
2023-01-07T05:49:43.361Z,406.00
2023-01-07T05:50:43.410Z,404.00
2023-01-07T05:51:43.307Z,402.00
2023-01-07T05:52:43.274Z,402.00
2023-01-07T05:53:43.257Z,405.00
2023-01-07T05:54:43.192Z,404.00
2023-01-07T05:55:43.152Z,404.00
2023-01-07T05:56:43.120Z,405.00
2023-01-07T05:57:43.092Z,405.00
2023-01-07T05:58:43.073Z,404.00
2023-01-07T05:59:43.018Z,407.00
2023-01-07T06:00:42.997Z,408.00
2023-01-07T06:01:42.952Z,407.00
2023-01-07T09:44:34.847Z,402.00
2023-01-07T10:07:33.729Z,403.00
2023-01-07T10:10:33.602Z,404.00
2023-01-07T10:11:33.561Z,404.00
2023-01-07T10:12:33.502Z,406.00
2023-01-07T10:13:33.459Z,405.00
2023-01-07T10:14:33.395Z,403.00
2023-01-07T10:15:33.363Z,405.00
2023-01-07T10:16:33.388Z,406.00
2023-01-07T10:17:33.479Z,405.00
2023-01-07T10:18:33.219Z,406.00
2023-01-07T10:19:33.181Z,405.00
2023-01-07T10:20:33.107Z,405.00
2023-01-07T10:21:33.056Z,406.00
2023-01-07T10:22:33.095Z,409.00
2023-01-07T10:23:32.947Z,411.00
2023-01-07T12:33:24.776Z,397.00
2023-01-07T12:34:24.716Z,397.00
2023-01-07T12:35:24.646Z,396.00
2023-01-07T12:36:24.554Z,396.00
2023-01-07T12:37:24.525Z,396.00
2023-01-07T12:38:24.414Z,396.00
2023-01-07T12:39:24.339Z,396.00
2023-01-07T12:40:24.309Z,396.00
2023-01-07T12:41:24.216Z,397.00
2023-01-07T12:42:24.340Z,396.00
2023-01-07T12:43:24.047Z,394.00
2023-01-07T12:44:23.975Z,397.00
2023-01-07T12:45:23.892Z,398.00
2023-01-07T12:46:23.940Z,398.00
2023-01-07T12:47:31.482Z,400.00
2023-01-07T12:49:23.635Z,401.00
2023-01-07T12:50:23.568Z,400.00
2023-01-07T12:51:23.486Z,401.00
2023-01-07T12:52:23.422Z,398.00
2023-01-07T12:53:23.363Z,397.00
2023-01-07T12:54:23.327Z,396.00
2023-01-07T12:55:23.224Z,399.00
2023-01-07T12:56:23.849Z,400.00
2023-01-07T12:57:23.113Z,401.00
2023-01-07T12:58:23.058Z,399.00
2023-01-07T12:59:46.964Z,399.00
2023-01-07T13:41:19.747Z,410.00
2023-01-07T13:42:19.719Z,410.00
2023-01-07T13:43:19.527Z,412.00
2023-01-07T13:44:19.431Z,412.00
2023-01-07T13:46:19.280Z,411.00
2023-01-07T13:47:19.129Z,413.00
2023-01-07T13:48:19.071Z,417.00
2023-01-07T13:49:19.040Z,420.00
2023-01-07T13:50:19.062Z,420.00
2023-01-07T13:51:18.942Z,418.00
2023-01-07T13:52:18.933Z,419.00
2023-01-07T13:53:18.905Z,420.00
2023-01-07T13:54:18.878Z,417.00
2023-01-07T13:55:18.843Z,416.00
2023-01-07T13:56:18.846Z,416.00
2023-01-07T13:57:18.810Z,414.00
2023-01-07T13:58:18.799Z,411.00
2023-01-07T13:59:18.785Z,410.00
2023-01-07T14:00:20.896Z,410.00
2023-01-07T14:01:18.793Z,408.00
2023-01-07T14:02:18.801Z,409.00
2023-01-07T14:03:18.604Z,410.00
2023-01-07T14:04:18.478Z,409.00
2023-01-07T14:05:18.407Z,408.00
2023-01-07T14:06:18.409Z,407.00
2023-01-07T14:07:18.249Z,410.00
2023-01-07T14:08:18.178Z,408.00
2023-01-07T14:09:18.125Z,408.00
2023-01-07T14:10:18.043Z,408.00
2023-01-07T14:11:17.990Z,411.00
2023-01-07T14:12:18.279Z,409.00
2023-01-07T14:13:17.847Z,409.00
2023-01-07T14:14:17.813Z,412.00
2023-01-07T14:15:17.724Z,409.00
2023-01-07T14:16:17.703Z,407.00
2023-01-07T14:17:17.582Z,406.00
2023-01-07T14:18:17.935Z,406.00
2023-01-07T14:19:17.467Z,406.00
2023-01-07T14:20:17.457Z,406.00
2023-01-07T14:21:17.330Z,405.00
2023-01-07T14:22:17.366Z,405.00
2023-01-07T14:23:17.245Z,404.00
2023-01-07T14:24:18.625Z,404.00
2023-01-07T14:25:17.096Z,405.00
2023-01-07T14:26:17.060Z,404.00
2023-01-07T14:27:17.009Z,406.00
2023-01-07T14:28:16.940Z,407.00
2023-01-07T14:29:16.875Z,407.00
2023-01-07T14:30:17.177Z,408.00
2023-01-07T14:31:16.796Z,406.00
2023-01-07T14:32:16.687Z,407.00
2023-01-07T14:33:16.618Z,405.00
2023-01-07T14:34:16.558Z,404.00
2023-01-07T14:35:16.511Z,403.00
2023-01-07T14:36:16.447Z,403.00
2023-01-07T14:37:16.412Z,403.00
2023-01-07T14:38:16.435Z,403.00
2023-01-07T14:39:16.289Z,402.00
2023-01-07T14:40:16.251Z,401.00
2023-01-07T14:41:16.175Z,401.00
2023-01-07T14:42:16.138Z,400.00
2023-01-07T14:43:16.073Z,401.00
2023-01-07T14:44:16.013Z,400.00
2023-01-07T14:45:15.972Z,401.00
2023-01-07T14:46:18.095Z,404.00
2023-01-07T14:47:15.823Z,403.00
2023-01-07T14:48:15.766Z,400.00
2023-01-07T14:49:15.731Z,398.00
2023-01-07T14:50:15.657Z,398.00
2023-01-07T14:51:15.623Z,399.00
2023-01-07T14:52:15.570Z,399.00
2023-01-07T14:53:15.536Z,398.00
2023-01-07T14:54:15.542Z,397.00
2023-01-07T14:55:15.406Z,397.00
2023-01-07T14:56:15.366Z,397.00
2023-01-07T14:57:15.335Z,400.00
2023-01-07T14:58:15.260Z,398.00
2023-01-07T14:59:15.199Z,399.00
2023-01-07T15:00:15.166Z,397.00
2023-01-07T15:01:15.160Z,397.00
2023-01-07T15:02:15.132Z,399.00
2023-01-07T15:03:15.026Z,400.00
2023-01-07T15:04:14.953Z,400.00
2023-01-07T15:05:14.888Z,400.00
2023-01-07T15:06:14.855Z,396.00
2023-01-07T15:07:14.812Z,396.00
2023-01-07T15:08:14.725Z,399.00
2023-01-07T15:09:14.689Z,400.00
2023-01-07T15:10:14.712Z,401.00
2023-01-07T15:11:14.605Z,401.00
2023-01-07T15:12:14.545Z,402.00
2023-01-07T15:13:14.505Z,402.00
2023-01-07T15:14:14.443Z,402.00
2023-01-07T15:15:14.409Z,404.00
2023-01-07T15:16:14.421Z,403.00
2023-01-07T15:17:14.313Z,404.00
2023-01-07T15:18:14.239Z,403.00
2023-01-07T15:19:14.186Z,403.00
2023-01-07T15:20:14.145Z,398.00
2023-01-07T15:21:14.091Z,400.00
2023-01-07T15:22:14.045Z,401.00
2023-01-07T15:23:13.984Z,403.00
2023-01-07T15:24:13.931Z,404.00
2023-01-07T15:25:13.883Z,402.00
2023-01-07T15:26:14.008Z,402.00
2023-01-07T15:27:13.794Z,401.00
2023-01-07T15:28:13.737Z,402.00
2023-01-07T15:29:13.694Z,401.00
2023-01-07T15:30:13.654Z,401.00
2023-01-07T15:31:13.654Z,398.00
2023-01-07T15:32:13.545Z,397.00
2023-01-07T15:33:13.503Z,399.00
2023-01-07T15:34:13.453Z,397.00
2023-01-07T15:35:13.390Z,400.00
2023-01-07T15:36:13.359Z,402.00
2023-01-07T15:37:13.324Z,402.00
2023-01-07T15:38:13.257Z,402.00
2023-01-07T15:39:13.218Z,401.00
2023-01-07T15:40:13.178Z,400.00
2023-01-07T15:41:13.140Z,398.00
2023-01-07T15:42:13.146Z,397.00
2023-01-07T15:43:13.047Z,397.00
2023-01-07T15:44:12.980Z,395.00
2023-01-07T15:45:12.903Z,397.00
2023-01-07T15:46:12.894Z,399.00
2023-01-07T15:47:12.823Z,399.00
2023-01-07T15:48:12.775Z,400.00
2023-01-07T15:49:12.713Z,398.00
2023-01-07T15:50:12.669Z,396.00
2023-01-07T15:51:12.642Z,395.00
2023-01-07T15:52:12.578Z,393.00
2023-01-07T15:53:12.513Z,393.00
2023-01-07T15:54:12.507Z,392.00
2023-01-07T15:55:12.414Z,392.00
2023-01-07T15:56:12.368Z,393.00
2023-01-07T15:57:12.326Z,392.00
2023-01-07T15:58:12.341Z,393.00
2023-01-07T15:59:12.210Z,393.00
2023-01-07T16:00:12.147Z,397.00
2023-01-07T16:01:12.142Z,397.00
2023-01-07T16:02:12.135Z,398.00
2023-01-07T16:03:12.033Z,396.00
2023-01-07T16:04:14.258Z,395.00
2023-01-07T16:05:12.019Z,396.00
2023-01-07T16:06:11.920Z,398.00
2023-01-07T16:07:11.883Z,397.00
2023-01-07T16:08:11.806Z,401.00
2023-01-07T16:09:11.764Z,402.00
2023-01-07T16:10:11.699Z,403.00
2023-01-07T16:11:11.705Z,403.00
2023-01-07T16:12:11.635Z,402.00
2023-01-07T16:13:11.575Z,401.00
2023-01-07T16:14:11.524Z,403.00
2023-01-07T16:15:11.463Z,403.00
2023-01-07T16:16:11.445Z,403.00
2023-01-07T16:17:11.397Z,405.00
2023-01-07T16:18:11.685Z,403.00
2023-01-07T16:19:11.299Z,402.00
2023-01-07T16:20:11.222Z,400.00
2023-01-07T16:21:11.197Z,399.00
2023-01-07T16:22:11.123Z,399.00
2023-01-07T16:23:11.078Z,398.00
2023-01-07T16:24:11.020Z,399.00
2023-01-07T16:25:10.991Z,397.00
2023-01-07T16:26:10.938Z,398.00
2023-01-07T16:27:10.878Z,397.00
2023-01-07T16:28:10.846Z,396.00
2023-01-07T16:29:10.799Z,396.00
2023-01-07T16:30:10.816Z,395.00
2023-01-07T16:31:10.784Z,396.00
2023-01-07T16:32:10.655Z,399.00
2023-01-07T16:33:10.629Z,401.00
2023-01-07T16:34:10.577Z,401.00
2023-01-07T16:35:10.535Z,401.00
2023-01-07T16:36:10.490Z,403.00
2023-01-07T16:37:10.442Z,402.00
2023-01-07T16:38:10.419Z,400.00
2023-01-07T16:39:10.361Z,399.00
2023-01-07T16:40:10.343Z,398.00
2023-01-07T16:41:10.283Z,399.00
2023-01-07T16:42:10.235Z,399.00
2023-01-07T16:43:10.202Z,398.00
2023-01-07T16:44:10.140Z,397.00
2023-01-07T16:45:10.071Z,396.00
2023-01-07T16:46:10.119Z,396.00
2023-01-07T16:47:09.988Z,393.00
2023-01-07T16:48:09.939Z,392.00
2023-01-07T16:49:09.887Z,393.00
2023-01-07T16:50:09.834Z,395.00
2023-01-07T16:51:09.797Z,396.00
2023-01-07T16:52:09.743Z,396.00
2023-01-07T16:53:09.710Z,398.00
2023-01-07T16:54:09.651Z,396.00
2023-01-07T16:55:09.599Z,394.00
2023-01-07T16:56:09.589Z,396.00
2023-01-07T16:57:09.505Z,395.00
2023-01-07T16:58:09.487Z,394.00
2023-01-07T16:59:09.428Z,393.00
2023-01-07T17:00:09.358Z,396.00
2023-01-07T17:01:09.409Z,398.00
2023-01-07T17:02:09.340Z,396.00
2023-01-07T17:03:09.231Z,396.00
2023-01-07T17:04:09.251Z,395.00
2023-01-07T17:05:09.113Z,395.00
2023-01-07T17:06:09.076Z,395.00
2023-01-07T17:07:09.022Z,394.00
2023-01-07T17:08:08.988Z,394.00
2023-01-07T17:09:08.945Z,394.00
2023-01-07T17:10:08.866Z,398.00
2023-01-07T17:11:08.822Z,400.00
2023-01-07T17:12:08.783Z,400.00
2023-01-07T17:13:08.730Z,400.00
2023-01-07T17:14:08.679Z,400.00
2023-01-07T17:15:08.640Z,401.00
2023-01-07T17:16:08.607Z,401.00
2023-01-07T17:17:09.376Z,401.00
2023-01-07T17:18:08.555Z,402.00
2023-01-07T17:19:08.443Z,403.00
2023-01-07T17:20:08.394Z,403.00
2023-01-07T17:21:08.353Z,402.00
2023-01-07T17:22:08.297Z,400.00
2023-01-07T17:23:08.397Z,400.00
2023-01-07T17:24:08.225Z,401.00
2023-01-07T17:25:08.139Z,401.00
2023-01-07T17:26:08.085Z,402.00
2023-01-07T17:27:08.051Z,402.00
2023-01-07T17:28:07.982Z,403.00
2023-01-07T17:29:07.989Z,402.00
2023-01-07T17:30:07.881Z,401.00
2023-01-07T17:31:07.856Z,401.00
2023-01-07T17:32:07.796Z,400.00
2023-01-07T17:33:07.740Z,400.00
2023-01-07T17:34:07.790Z,402.00
2023-01-07T17:35:07.633Z,401.00
2023-01-07T17:36:07.588Z,400.00
2023-01-07T17:37:07.539Z,400.00
2023-01-07T17:38:07.499Z,401.00
2023-01-07T17:39:07.481Z,398.00
2023-01-07T17:40:07.386Z,398.00
2023-01-07T17:41:07.356Z,399.00
2023-01-07T17:42:07.296Z,400.00
2023-01-07T17:43:07.264Z,399.00
2023-01-07T17:44:07.220Z,398.00
2023-01-07T17:45:07.159Z,396.00
2023-01-07T17:46:07.152Z,399.00
2023-01-07T17:47:07.061Z,399.00
2023-01-07T17:48:07.029Z,398.00
2023-01-07T17:49:07.004Z,397.00
2023-01-07T17:50:07.026Z,398.00
2023-01-07T17:51:06.917Z,396.00
2023-01-07T17:52:06.852Z,397.00
2023-01-07T17:53:06.825Z,399.00
2023-01-07T17:54:06.828Z,399.00
2023-01-07T17:55:06.741Z,398.00
2023-01-07T17:56:06.712Z,400.00
2023-01-07T17:57:06.661Z,399.00
2023-01-07T17:58:06.620Z,400.00
2023-01-07T17:59:06.578Z,401.00
2023-01-07T18:00:06.571Z,402.00
2023-01-07T18:01:06.708Z,401.00
2023-01-07T18:02:06.725Z,402.00
2023-01-07T18:03:06.457Z,402.00
2023-01-07T18:04:06.375Z,404.00
2023-01-07T18:05:06.361Z,405.00
2023-01-07T18:06:06.380Z,408.00
2023-01-07T18:07:06.241Z,409.00
2023-01-07T18:08:06.214Z,407.00
2023-01-07T18:09:06.147Z,406.00
2023-01-07T18:10:06.139Z,405.00
2023-01-07T18:11:06.063Z,405.00
2023-01-07T18:12:06.029Z,403.00
2023-01-07T18:13:05.982Z,402.00
2023-01-07T18:14:05.998Z,400.00
2023-01-07T18:15:05.932Z,398.00
2023-01-07T18:16:05.941Z,399.00
2023-01-07T18:17:05.824Z,399.00
2023-01-07T18:18:05.782Z,397.00
2023-01-07T18:19:05.761Z,396.00
2023-01-07T18:20:05.728Z,397.00
2023-01-07T18:21:05.674Z,395.00
2023-01-07T18:22:05.699Z,393.00
2023-01-07T18:23:05.582Z,393.00
2023-01-07T18:24:05.582Z,394.00
2023-01-07T18:25:05.556Z,394.00
2023-01-07T18:26:05.507Z,393.00
2023-01-07T18:27:05.448Z,397.00
2023-01-07T18:28:05.407Z,401.00
2023-01-07T18:29:05.357Z,400.00
2023-01-07T18:30:05.338Z,396.00
2023-01-07T18:31:05.279Z,394.00
2023-01-07T18:32:05.318Z,396.00
2023-01-07T18:33:05.190Z,396.00
2023-01-07T18:34:05.159Z,393.00
2023-01-07T18:35:05.142Z,395.00
2023-01-07T18:36:05.062Z,396.00
2023-01-07T18:37:05.040Z,395.00
2023-01-07T18:38:05.079Z,397.00
2023-01-07T18:39:04.977Z,396.00
2023-01-07T18:40:04.936Z,398.00
2023-01-07T18:41:04.893Z,400.00
2023-01-07T18:42:04.829Z,402.00
2023-01-07T18:43:04.818Z,402.00
2023-01-07T18:44:04.743Z,402.00
2023-01-07T18:45:04.721Z,401.00
2023-01-07T18:46:04.756Z,402.00
2023-01-07T18:47:04.647Z,401.00
2023-01-07T18:48:04.569Z,401.00
2023-01-07T18:49:04.555Z,401.00
2023-01-07T18:50:04.515Z,400.00
2023-01-07T18:51:04.483Z,401.00
2023-01-07T18:52:04.435Z,402.00
2023-01-07T18:53:04.379Z,402.00
2023-01-07T18:54:04.416Z,404.00
2023-01-07T18:55:04.294Z,405.00
2023-01-07T18:56:04.292Z,404.00
2023-01-07T18:57:04.242Z,404.00
2023-01-07T18:58:04.176Z,406.00
2023-01-07T18:59:04.158Z,404.00
2023-01-07T19:00:04.110Z,403.00
2023-01-07T19:01:04.162Z,403.00
2023-01-07T19:02:04.054Z,404.00
2023-01-07T19:03:03.942Z,404.00
2023-01-07T19:04:03.976Z,401.00
2023-01-07T19:05:03.883Z,400.00
2023-01-07T19:06:03.827Z,399.00
2023-01-07T19:07:03.816Z,399.00
2023-01-07T19:08:03.741Z,399.00
2023-01-07T19:09:03.717Z,399.00
2023-01-07T19:10:03.760Z,397.00
2023-01-07T19:11:03.646Z,395.00
2023-01-07T19:12:03.581Z,397.00
2023-01-07T19:13:03.531Z,397.00
2023-01-07T19:14:03.496Z,397.00
2023-01-07T19:15:03.466Z,397.00
2023-01-07T19:16:03.423Z,396.00
2023-01-07T19:17:03.363Z,397.00
2023-01-07T19:18:03.343Z,395.00
2023-01-07T19:19:03.288Z,396.00
2023-01-07T19:20:03.271Z,396.00
2023-01-07T19:21:03.224Z,397.00
2023-01-07T19:22:03.196Z,395.00
2023-01-07T19:23:03.128Z,393.00
2023-01-07T19:24:03.087Z,395.00
2023-01-07T19:25:03.053Z,394.00
2023-01-07T19:26:03.089Z,395.00
2023-01-07T19:27:02.972Z,396.00
2023-01-07T19:28:02.929Z,397.00
2023-01-07T19:29:02.902Z,399.00
2023-01-07T19:30:02.867Z,400.00
2023-01-07T19:31:02.836Z,399.00
2023-01-07T19:32:02.905Z,400.00
2023-01-07T19:33:02.765Z,398.00
2023-01-07T19:34:02.691Z,395.00
2023-01-07T19:35:02.645Z,400.00
2023-01-07T19:36:02.602Z,402.00
2023-01-07T19:37:02.582Z,403.00
2023-01-07T19:38:02.519Z,404.00
2023-01-07T19:39:02.478Z,406.00
2023-01-07T19:40:02.453Z,406.00
2023-01-07T19:41:02.404Z,406.00
2023-01-07T19:42:02.467Z,404.00
2023-01-07T19:43:02.343Z,404.00
2023-01-07T19:44:02.321Z,404.00
2023-01-07T19:45:02.269Z,403.00
2023-01-07T19:46:02.255Z,407.00
2023-01-07T19:47:02.211Z,407.00
2023-01-07T19:48:02.144Z,409.00
2023-01-07T19:49:02.134Z,410.00
2023-01-07T19:50:02.139Z,410.00
2023-01-07T19:51:02.024Z,409.00
2023-01-07T19:52:02.007Z,410.00
2023-01-07T19:53:01.970Z,408.00
2023-01-07T19:54:01.898Z,407.00
2023-01-07T19:55:01.866Z,408.00
2023-01-07T19:56:01.819Z,409.00
2023-01-07T19:57:01.774Z,407.00
2023-01-07T19:58:01.813Z,408.00
2023-01-07T19:59:01.693Z,407.00
2023-01-07T20:00:01.651Z,405.00
2023-01-07T20:01:01.718Z,406.00
2023-01-07T20:02:01.877Z,407.00
2023-01-07T20:03:01.627Z,409.00
2023-01-07T20:04:01.519Z,408.00
2023-01-07T20:05:01.480Z,407.00
2023-01-07T20:06:01.432Z,406.00
2023-01-07T20:07:01.423Z,405.00
2023-01-07T20:08:01.379Z,404.00
2023-01-07T20:09:01.324Z,403.00
2023-01-07T20:10:01.316Z,402.00
2023-01-07T20:11:01.266Z,404.00
2023-01-07T20:12:01.205Z,405.00
2023-01-07T20:13:01.223Z,403.00
2023-01-07T20:14:01.226Z,405.00
2023-01-07T20:15:01.117Z,405.00
2023-01-07T20:16:01.064Z,406.00
2023-01-07T20:17:01.175Z,405.00
2023-01-07T20:18:00.991Z,405.00
2023-01-07T20:19:00.949Z,405.00
2023-01-07T20:20:00.946Z,403.00
2023-01-07T20:21:00.917Z,404.00
2023-01-07T20:22:00.861Z,403.00
2023-01-07T20:23:00.836Z,404.00
2023-01-07T20:24:00.796Z,402.00
2023-01-07T20:25:00.740Z,400.00
2023-01-07T20:26:00.717Z,400.00
2023-01-07T20:27:00.677Z,401.00
2023-01-07T20:28:00.644Z,399.00
2023-01-07T20:29:00.593Z,398.00
2023-01-07T20:30:00.648Z,398.00
2023-01-07T20:31:00.528Z,398.00
2023-01-07T20:32:00.573Z,398.00
2023-01-07T20:33:00.478Z,399.00
2023-01-07T20:34:00.411Z,399.00
2023-01-07T20:35:00.394Z,398.00
2023-01-07T20:36:00.354Z,398.00
2023-01-07T20:37:00.302Z,400.00
2023-01-07T20:38:00.480Z,400.00
2023-01-07T20:39:00.247Z,401.00
2023-01-07T20:40:00.206Z,402.00
2023-01-07T20:41:00.154Z,402.00
2023-01-07T20:42:00.119Z,402.00
2023-01-07T20:43:00.108Z,400.00
2023-01-07T20:44:00.116Z,401.00
2023-01-07T20:45:00.020Z,401.00
2023-01-07T20:46:00.179Z,401.00
2023-01-07T20:46:59.959Z,401.00
2023-01-07T20:47:59.924Z,399.00
2023-01-07T20:48:59.900Z,401.00
2023-01-07T20:49:59.856Z,401.00
2023-01-07T20:50:59.813Z,402.00
2023-01-07T20:51:59.782Z,401.00
2023-01-07T20:52:59.738Z,402.00
2023-01-07T20:53:59.727Z,401.00
2023-01-07T20:54:59.672Z,402.00
2023-01-07T20:55:59.630Z,402.00
2023-01-07T20:56:59.606Z,400.00
2023-01-07T20:57:59.562Z,400.00
2023-01-07T20:58:59.527Z,401.00
2023-01-07T20:59:59.511Z,400.00
2023-01-07T21:00:59.582Z,401.00
2023-01-07T21:01:59.779Z,402.00
2023-01-07T21:02:59.423Z,403.00
2023-01-07T21:03:59.379Z,405.00
2023-01-07T21:04:59.358Z,406.00
2023-01-07T21:05:59.291Z,405.00
2023-01-07T21:06:59.259Z,403.00
2023-01-07T21:07:59.234Z,403.00
2023-01-07T21:08:59.183Z,405.00
2023-01-07T21:09:59.158Z,406.00
2023-01-07T21:10:59.094Z,407.00
2023-01-07T21:11:59.063Z,407.00
2023-01-07T21:12:59.027Z,405.00
2023-01-07T21:13:59.000Z,405.00
2023-01-07T21:14:58.961Z,407.00
2023-01-07T21:15:58.927Z,406.00
2023-01-07T21:16:58.871Z,406.00
2023-01-07T21:17:58.945Z,404.00
2023-01-07T21:18:58.808Z,407.00
2023-01-07T21:19:58.760Z,407.00
2023-01-07T21:20:58.721Z,406.00
2023-01-07T21:21:58.678Z,405.00
2023-01-07T21:22:58.645Z,403.00
2023-01-07T21:23:58.602Z,404.00
2023-01-07T21:24:58.558Z,403.00
2023-01-07T21:25:58.521Z,404.00
2023-01-07T21:26:58.492Z,400.00
2023-01-07T21:27:58.472Z,400.00
2023-01-07T21:28:58.457Z,401.00
2023-01-07T21:29:58.364Z,401.00
2023-01-07T21:30:58.317Z,403.00
2023-01-07T21:31:58.332Z,402.00
2023-01-07T21:32:58.243Z,403.00
2023-01-07T21:33:58.318Z,403.00
2023-01-07T21:34:58.182Z,402.00
2023-01-07T21:35:58.130Z,400.00
2023-01-07T21:36:58.096Z,397.00
2023-01-07T21:37:58.061Z,396.00
2023-01-07T21:38:58.023Z,397.00
2023-01-07T21:39:58.001Z,397.00
2023-01-07T21:40:57.943Z,395.00
2023-01-07T21:41:57.917Z,395.00
2023-01-07T21:42:57.903Z,398.00
2023-01-07T21:43:57.849Z,398.00
2023-01-07T21:44:57.799Z,399.00
2023-01-07T21:45:57.793Z,399.00
2023-01-07T21:46:57.733Z,398.00
2023-01-07T21:47:57.695Z,394.00
2023-01-07T21:48:57.697Z,394.00
2023-01-07T21:49:57.727Z,395.00
2023-01-07T21:50:57.596Z,394.00
2023-01-07T21:51:57.555Z,393.00
2023-01-07T21:52:57.511Z,396.00
2023-01-07T21:53:57.483Z,399.00
2023-01-07T21:54:57.431Z,398.00
2023-01-07T21:55:57.400Z,398.00
2023-01-07T21:56:57.361Z,396.00
2023-01-07T21:57:57.315Z,395.00
2023-01-07T21:58:57.277Z,394.00
2023-01-07T21:59:57.288Z,394.00
2023-01-07T22:00:57.283Z,395.00
2023-01-07T22:01:57.279Z,394.00
2023-01-07T22:02:57.142Z,395.00
2023-01-07T22:03:57.188Z,395.00
2023-01-07T22:04:57.085Z,394.00
2023-01-07T22:05:57.047Z,392.00
2023-01-07T22:06:57.004Z,394.00
2023-01-07T22:07:56.977Z,397.00
2023-01-07T22:08:56.931Z,397.00
2023-01-07T22:09:56.900Z,397.00
2023-01-07T22:10:56.864Z,395.00
2023-01-07T22:11:56.804Z,397.00
2023-01-07T22:12:56.762Z,398.00
2023-01-07T22:13:56.721Z,400.00
2023-01-07T22:14:56.693Z,400.00
2023-01-07T22:15:56.688Z,395.00
2023-01-07T22:16:56.621Z,394.00
2023-01-07T22:17:56.577Z,394.00
2023-01-07T22:18:56.541Z,396.00
2023-01-07T22:19:56.498Z,400.00
2023-01-07T22:20:56.454Z,404.00
2023-01-07T22:21:56.517Z,404.00
2023-01-07T22:22:56.396Z,403.00
2023-01-07T22:23:56.366Z,400.00
2023-01-07T22:24:56.325Z,400.00
2023-01-07T22:25:56.286Z,401.00
2023-01-07T22:26:56.262Z,401.00
2023-01-07T22:27:56.246Z,400.00
2023-01-07T22:28:56.230Z,400.00
2023-01-07T22:29:56.202Z,400.00
2023-01-07T22:30:56.128Z,400.00
2023-01-07T22:31:56.144Z,399.00
2023-01-07T22:32:56.068Z,399.00
2023-01-07T22:33:56.024Z,397.00
2023-01-07T22:34:55.985Z,397.00
2023-01-07T22:35:55.971Z,397.00
2023-01-07T22:36:55.909Z,398.00
2023-01-07T22:37:55.964Z,399.00
2023-01-07T22:38:55.857Z,401.00
2023-01-07T22:39:55.823Z,402.00
2023-01-07T22:40:55.776Z,403.00
2023-01-07T22:41:56.346Z,404.00
2023-01-07T22:42:55.754Z,404.00
2023-01-07T22:43:55.685Z,403.00
2023-01-07T22:44:55.641Z,403.00
2023-01-07T22:45:55.683Z,404.00
2023-01-07T22:46:55.631Z,402.00
2023-01-07T22:47:55.534Z,399.00
2023-01-07T22:48:55.488Z,397.00
2023-01-07T22:49:55.450Z,395.00
2023-01-07T22:50:55.417Z,394.00
2023-01-07T22:51:55.379Z,394.00
2023-01-07T22:52:55.337Z,393.00
2023-01-07T22:53:55.373Z,394.00
2023-01-07T22:54:55.249Z,393.00
2023-01-07T22:55:55.219Z,392.00
2023-01-07T22:56:55.175Z,395.00
2023-01-07T22:57:55.147Z,395.00
2023-01-07T22:58:55.087Z,393.00
2023-01-07T22:59:55.045Z,393.00
2023-01-07T23:00:55.038Z,393.00
2023-01-07T23:01:54.968Z,392.00
2023-01-07T23:02:54.924Z,392.00
2023-01-07T23:03:54.899Z,391.00
2023-01-07T23:04:54.832Z,391.00
2023-01-07T23:05:54.779Z,391.00
2023-01-07T23:06:54.751Z,391.00
2023-01-07T23:07:54.729Z,392.00
2023-01-07T23:08:54.662Z,394.00
2023-01-07T23:09:54.675Z,393.00
2023-01-07T23:10:54.560Z,395.00
2023-01-07T23:11:54.531Z,397.00
2023-01-07T23:12:54.487Z,398.00
2023-01-07T23:13:54.453Z,396.00
2023-01-07T23:14:54.439Z,396.00
2023-01-07T23:15:54.370Z,398.00
2023-01-07T23:16:54.341Z,398.00
2023-01-07T23:17:54.301Z,398.00
2023-01-07T23:18:54.251Z,402.00
2023-01-07T23:19:54.221Z,403.00
2023-01-07T23:20:54.196Z,401.00
2023-01-07T23:21:54.133Z,400.00
2023-01-07T23:22:54.090Z,402.00
2023-01-07T23:23:54.049Z,402.00
2023-01-07T23:24:53.991Z,400.00
2023-01-07T23:25:54.050Z,400.00
2023-01-07T23:26:53.947Z,400.00
2023-01-07T23:27:53.868Z,400.00
2023-01-07T23:28:53.824Z,399.00
2023-01-07T23:29:53.784Z,398.00
2023-01-07T23:30:53.754Z,397.00
2023-01-07T23:31:53.771Z,396.00
2023-01-07T23:32:53.686Z,396.00
2023-01-07T23:33:53.609Z,396.00
2023-01-07T23:34:53.586Z,398.00
2023-01-07T23:35:53.540Z,399.00
2023-01-07T23:36:53.502Z,397.00
2023-01-07T23:37:53.473Z,396.00
2023-01-07T23:38:53.418Z,397.00
2023-01-07T23:39:53.375Z,399.00
2023-01-07T23:40:53.334Z,398.00
2023-01-07T23:41:53.390Z,398.00
2023-01-07T23:42:53.284Z,399.00
2023-01-07T23:43:53.228Z,402.00
2023-01-07T23:44:53.199Z,402.00
2023-01-07T23:45:53.143Z,402.00
2023-01-07T23:46:53.118Z,401.00
2023-01-07T23:47:53.052Z,400.00
2023-01-07T23:48:53.032Z,396.00
2023-01-07T23:49:52.973Z,395.00
2023-01-07T23:50:52.947Z,395.00
2023-01-07T23:51:52.936Z,397.00
2023-01-07T23:52:52.889Z,396.00
2023-01-07T23:53:52.820Z,397.00
2023-01-07T23:54:52.771Z,397.00
2023-01-07T23:55:52.740Z,397.00
2023-01-07T23:56:52.708Z,398.00
2023-01-07T23:57:52.732Z,398.00
2023-01-07T23:58:52.621Z,401.00
2023-01-07T23:59:52.588Z,402.00
